createdAt,value
2018-03-01T00:00:34.614Z,-9.10
2018-03-01T00:03:08.286Z,-9.10
2018-03-01T00:05:42.046Z,-9.20
2018-03-01T00:08:16.636Z,-9.10
2018-03-01T00:10:50.520Z,-9.10
2018-03-01T00:13:24.320Z,-9.10
2018-03-01T00:15:57.973Z,-9.10
2018-03-01T00:18:31.677Z,-9.10
2018-03-01T00:21:06.350Z,-9.10
2018-03-01T00:23:40.058Z,-9.20
2018-03-01T00:26:13.671Z,-9.20
2018-03-01T00:28:48.735Z,-9.20
2018-03-01T00:31:22.469Z,-9.20
2018-03-01T00:33:56.996Z,-9.20
2018-03-01T00:36:31.675Z,-9.10
2018-03-01T00:39:05.547Z,-9.10
2018-03-01T00:41:39.451Z,-9.10
2018-03-01T00:44:13.187Z,-9.10
2018-03-01T00:46:46.835Z,-9.10
2018-03-01T00:49:21.413Z,-9.20
2018-03-01T00:51:55.045Z,-9.20
2018-03-01T00:54:29.625Z,-9.00
2018-03-01T00:57:04.194Z,-9.10
2018-03-01T00:59:37.825Z,-9.10
2018-03-01T01:02:11.837Z,-9.10
2018-03-01T01:04:45.711Z,-9.10
2018-03-01T01:07:21.282Z,-9.10
2018-03-01T01:09:54.883Z,-9.10
2018-03-01T01:12:30.023Z,-9.10
2018-03-01T01:15:04.302Z,-9.10
2018-03-01T01:17:37.989Z,-9.10
2018-03-01T01:20:11.713Z,-9.10
2018-03-01T01:22:45.462Z,-9.10
2018-03-01T01:25:19.125Z,-9.10
2018-03-01T01:27:53.189Z,-9.00
2018-03-01T01:30:26.988Z,-9.00
2018-03-01T01:33:01.484Z,-9.00
2018-03-01T01:35:35.633Z,-9.00
2018-03-01T01:38:09.421Z,-9.00
2018-03-01T01:40:43.322Z,-9.00
2018-03-01T01:43:17.360Z,-9.00
2018-03-01T01:45:51.130Z,-8.90
2018-03-01T01:48:24.834Z,-8.90
2018-03-01T01:51:06.343Z,-8.80
2018-03-01T01:53:40.711Z,-8.80
2018-03-01T01:56:14.603Z,-8.80
2018-03-01T01:58:48.362Z,-8.80
2018-03-01T02:01:22.140Z,-8.80
2018-03-01T02:03:56.562Z,-8.90
2018-03-01T02:06:31.036Z,-8.90
2018-03-01T02:09:05.470Z,-8.80
2018-03-01T02:11:39.093Z,-8.80
2018-03-01T02:14:13.576Z,-8.80
2018-03-01T02:16:47.770Z,-8.80
2018-03-01T02:19:22.375Z,-8.80
2018-03-01T02:21:56.866Z,-8.80
2018-03-01T02:24:30.588Z,-8.80
2018-03-01T02:27:04.358Z,-8.80
2018-03-01T02:29:38.564Z,-8.80
2018-03-01T02:32:12.649Z,-8.80
2018-03-01T02:34:46.649Z,-8.70
2018-03-01T02:37:21.815Z,-8.70
2018-03-01T02:39:55.622Z,-8.70
2018-03-01T02:42:30.233Z,-8.80
2018-03-01T02:45:03.941Z,-8.80
2018-03-01T02:47:39.458Z,-8.80
2018-03-01T02:50:14.044Z,-8.80
2018-03-01T02:52:48.176Z,-8.80
2018-03-01T02:55:21.902Z,-8.90
2018-03-01T02:57:55.678Z,-8.80
2018-03-01T03:00:29.413Z,-8.90
2018-03-01T03:03:03.143Z,-8.90
2018-03-01T03:05:36.827Z,-8.90
2018-03-01T03:08:10.634Z,-8.90
2018-03-01T03:10:44.310Z,-9.00
2018-03-01T03:13:18.052Z,-8.90
2018-03-01T03:15:51.877Z,-8.90
2018-03-01T03:18:25.663Z,-8.90
2018-03-01T03:20:59.381Z,-8.90
2018-03-01T03:23:33.405Z,-8.90
2018-03-01T03:26:07.002Z,-8.90
2018-03-01T03:28:40.715Z,-8.90
2018-03-01T03:31:14.407Z,-8.90
2018-03-01T03:33:48.932Z,-9.00
2018-03-01T03:36:22.729Z,-9.00
2018-03-01T03:38:57.253Z,-9.00
2018-03-01T03:41:31.028Z,-9.00
2018-03-01T03:44:05.569Z,-9.10
2018-03-01T03:46:39.382Z,-9.10
2018-03-01T03:49:13.114Z,-9.10
2018-03-01T03:51:46.894Z,-9.10
2018-03-01T03:54:22.397Z,-9.10
2018-03-01T03:56:56.248Z,-9.10
2018-03-01T03:59:31.132Z,-9.10
2018-03-01T04:02:04.810Z,-9.20
2018-03-01T04:04:38.582Z,-9.20
2018-03-01T04:07:12.425Z,-9.20
2018-03-01T04:09:45.998Z,-9.20
2018-03-01T04:12:19.848Z,-9.20
2018-03-01T04:14:53.539Z,-9.30
2018-03-01T04:17:27.107Z,-9.30
2018-03-01T04:20:00.915Z,-9.30
2018-03-01T04:22:37.628Z,-9.30
2018-03-01T04:25:11.409Z,-9.30
2018-03-01T04:27:45.073Z,-9.30
2018-03-01T04:30:18.690Z,-9.40
2018-03-01T04:32:52.489Z,-9.30
2018-03-01T04:35:26.944Z,-9.30
2018-03-01T04:38:00.533Z,-9.30
2018-03-01T04:40:34.267Z,-9.40
2018-03-01T04:43:08.022Z,-9.30
2018-03-01T04:45:41.784Z,-9.40
2018-03-01T04:48:16.260Z,-9.30
2018-03-01T04:50:49.871Z,-9.30
2018-03-01T04:53:23.506Z,-9.30
2018-03-01T04:55:57.101Z,-9.40
2018-03-01T04:58:30.820Z,-9.40
2018-03-01T05:01:05.498Z,-9.40
2018-03-01T05:03:39.204Z,-9.40
2018-03-01T05:06:13.956Z,-9.40
2018-03-01T05:08:47.676Z,-9.40
2018-03-01T05:11:21.467Z,-9.40
2018-03-01T05:13:56.086Z,-9.40
2018-03-01T05:16:30.488Z,-9.40
2018-03-01T05:19:06.744Z,-9.40
2018-03-01T05:21:46.803Z,-9.40
2018-03-01T05:24:23.365Z,-9.40
2018-03-01T05:26:58.549Z,-9.40
2018-03-01T05:29:34.015Z,-9.40
2018-03-01T05:32:08.644Z,-9.40
2018-03-01T05:34:42.345Z,-9.50
2018-03-01T05:37:16.917Z,-9.50
2018-03-01T05:39:50.709Z,-9.50
2018-03-01T05:42:24.529Z,-9.50
2018-03-01T05:44:58.893Z,-9.50
2018-03-01T05:47:32.608Z,-9.50
2018-03-01T05:50:06.365Z,-9.50
2018-03-01T05:52:40.142Z,-9.50
2018-03-01T05:55:14.565Z,-9.50
2018-03-01T05:57:50.060Z,-9.50
2018-03-01T06:00:23.833Z,-9.50
2018-03-01T06:02:58.256Z,-9.50
2018-03-01T06:05:33.601Z,-9.50
2018-03-01T06:08:07.421Z,-9.50
2018-03-01T06:10:41.928Z,-9.50
2018-03-01T06:13:15.669Z,-9.50
2018-03-01T06:15:50.673Z,-9.50
2018-03-01T06:18:25.160Z,-9.40
2018-03-01T06:20:58.988Z,-9.40
2018-03-01T06:23:32.914Z,-9.40
2018-03-01T06:26:06.645Z,-9.40
2018-03-01T06:28:41.157Z,-9.40
2018-03-01T06:31:14.754Z,-9.40
2018-03-01T06:33:48.514Z,-9.30
2018-03-01T06:36:24.723Z,-9.30
2018-03-01T06:38:59.398Z,-9.30
2018-03-01T06:41:33.189Z,-9.20
2018-03-01T06:44:07.238Z,-9.20
2018-03-01T06:46:41.541Z,-9.30
2018-03-01T06:49:15.283Z,-9.20
2018-03-01T06:51:49.246Z,-9.20
2018-03-01T06:54:24.710Z,-9.20
2018-03-01T06:56:59.734Z,-9.20
2018-03-01T06:59:34.146Z,-9.20
2018-03-01T07:02:08.963Z,-9.10
2018-03-01T07:04:42.671Z,-9.10
2018-03-01T07:07:16.485Z,-9.10
2018-03-01T07:09:50.117Z,-9.10
2018-03-01T07:12:23.847Z,-9.10
2018-03-01T07:14:57.648Z,-9.10
2018-03-01T07:17:31.349Z,-9.10
2018-03-01T07:20:05.091Z,-9.10
2018-03-01T07:22:38.873Z,-9.00
2018-03-01T07:25:12.602Z,-9.00
2018-03-01T07:27:46.539Z,-9.00
2018-03-01T07:30:20.220Z,-8.90
2018-03-01T07:32:54.850Z,-9.00
2018-03-01T07:35:30.087Z,-8.90
2018-03-01T07:38:05.120Z,-8.90
2018-03-01T07:40:38.911Z,-8.90
2018-03-01T07:43:12.617Z,-8.90
2018-03-01T07:45:46.358Z,-8.80
2018-03-01T07:48:20.910Z,-8.60
2018-03-01T07:50:54.446Z,-8.60
2018-03-01T07:53:28.321Z,-8.60
2018-03-01T07:56:02.055Z,-8.50
2018-03-01T07:58:35.765Z,-8.50
2018-03-01T08:01:09.464Z,-8.50
2018-03-01T08:03:43.112Z,-8.50
2018-03-01T08:06:16.832Z,-8.40
2018-03-01T08:08:50.601Z,-8.50
2018-03-01T08:11:24.362Z,-8.40
2018-03-01T08:13:58.117Z,-8.40
2018-03-01T08:16:31.785Z,-8.30
2018-03-01T08:19:05.541Z,-8.40
2018-03-01T08:21:39.283Z,-8.30
2018-03-01T08:24:13.907Z,-8.10
2018-03-01T08:26:48.340Z,-8.00
2018-03-01T08:29:22.114Z,-8.00
2018-03-01T08:31:55.996Z,-8.00
2018-03-01T08:34:29.839Z,-7.90
2018-03-01T08:37:03.660Z,-7.90
2018-03-01T08:39:37.346Z,-7.90
2018-03-01T08:42:11.044Z,-7.90
2018-03-01T08:44:45.690Z,-7.90
2018-03-01T08:47:20.061Z,-7.80
2018-03-01T08:49:53.815Z,-7.80
2018-03-01T08:52:27.592Z,-7.80
2018-03-01T08:55:01.275Z,-7.70
2018-03-01T08:57:35.033Z,-7.60
2018-03-01T09:00:08.869Z,-7.40
2018-03-01T09:02:42.545Z,-7.30
2018-03-01T09:05:16.353Z,-7.40
2018-03-01T09:07:50.917Z,-7.30
2018-03-01T09:10:24.645Z,-7.40
2018-03-01T09:12:59.108Z,-7.30
2018-03-01T09:15:32.888Z,-7.30
2018-03-01T09:18:06.621Z,-7.30
2018-03-01T09:20:40.379Z,-7.30
2018-03-01T09:23:14.159Z,-7.10
2018-03-01T09:25:47.855Z,-7.00
2018-03-01T09:28:21.554Z,-6.90
2018-03-01T09:30:55.130Z,-6.80
2018-03-01T09:33:28.843Z,-6.80
2018-03-01T09:36:02.554Z,-6.90
2018-03-01T09:38:36.326Z,-6.90
2018-03-01T09:41:18.990Z,-6.80
2018-03-01T09:43:52.813Z,-6.80
2018-03-01T09:46:26.512Z,-6.80
2018-03-01T09:49:00.248Z,-6.60
2018-03-01T09:51:34.742Z,-6.40
2018-03-01T09:54:08.505Z,-6.40
2018-03-01T09:56:42.105Z,-6.40
2018-03-01T09:59:15.744Z,-6.40
2018-03-01T10:01:49.469Z,-6.30
2018-03-01T10:04:23.527Z,-6.30
2018-03-01T10:06:57.216Z,-6.20
2018-03-01T10:09:31.077Z,-6.20
2018-03-01T10:12:04.780Z,-6.20
2018-03-01T10:14:39.064Z,-6.20
2018-03-01T10:17:12.887Z,-6.10
2018-03-01T10:19:48.418Z,-6.00
2018-03-01T10:22:22.136Z,-6.10
2018-03-01T10:24:55.957Z,-6.10
2018-03-01T10:27:29.733Z,-6.00
2018-03-01T10:30:03.553Z,-5.90
2018-03-01T10:32:37.281Z,-5.90
2018-03-01T10:35:11.296Z,-5.70
2018-03-01T10:37:46.304Z,-5.60
2018-03-01T10:40:20.088Z,-5.60
2018-03-01T10:42:54.060Z,-5.50
2018-03-01T10:45:27.826Z,-5.70
2018-03-01T10:48:01.574Z,-5.70
2018-03-01T10:50:35.168Z,-5.50
2018-03-01T10:53:08.737Z,-5.40
2018-03-01T10:55:42.517Z,-5.50
2018-03-01T10:58:18.405Z,-5.30
2018-03-01T11:01:00.112Z,-5.10
2018-03-01T11:03:34.763Z,-5.00
2018-03-01T11:06:08.350Z,-5.00
2018-03-01T11:08:42.034Z,-5.00
2018-03-01T11:11:15.775Z,-5.10
2018-03-01T11:13:49.748Z,-5.10
2018-03-01T11:16:24.716Z,-5.00
2018-03-01T11:18:59.753Z,-5.00
2018-03-01T11:21:33.500Z,-4.90
2018-03-01T11:24:08.123Z,-4.80
2018-03-01T11:26:42.641Z,-4.80
2018-03-01T11:29:16.287Z,-4.90
2018-03-01T11:31:51.673Z,-4.80
2018-03-01T11:34:25.396Z,-4.80
2018-03-01T11:36:59.392Z,-4.50
2018-03-01T11:39:33.929Z,-4.40
2018-03-01T11:42:08.583Z,-4.40
2018-03-01T11:44:42.157Z,-4.40
2018-03-01T11:47:15.894Z,-4.50
2018-03-01T11:49:49.732Z,-4.30
2018-03-01T11:52:25.003Z,-4.10
2018-03-01T11:54:58.566Z,-4.10
2018-03-01T11:57:32.353Z,-4.00
2018-03-01T12:00:05.937Z,-3.90
2018-03-01T12:02:39.529Z,-3.80
2018-03-01T12:05:13.692Z,-3.80
2018-03-01T12:07:47.469Z,-3.80
2018-03-01T12:10:22.296Z,-3.80
2018-03-01T12:12:55.968Z,-3.80
2018-03-01T12:15:29.694Z,-4.00
2018-03-01T12:18:04.219Z,-3.90
2018-03-01T12:20:37.870Z,-3.90
2018-03-01T12:23:12.529Z,-3.90
2018-03-01T12:25:46.251Z,-3.90
2018-03-01T12:28:19.986Z,-3.70
2018-03-01T12:30:53.783Z,-3.90
2018-03-01T12:33:27.567Z,-3.90
2018-03-01T12:36:02.097Z,-3.60
2018-03-01T12:38:35.913Z,-3.60
2018-03-01T12:41:09.601Z,-3.50
2018-03-01T12:43:43.273Z,-3.40
2018-03-01T12:46:16.905Z,-3.50
2018-03-01T12:48:50.589Z,-3.50
2018-03-01T12:51:25.310Z,-3.50
2018-03-01T12:53:58.985Z,-3.40
2018-03-01T12:56:32.739Z,-3.30
2018-03-01T12:59:07.001Z,-3.10
2018-03-01T13:01:40.598Z,-3.10
2018-03-01T13:04:15.143Z,-3.00
2018-03-01T13:06:48.741Z,-2.90
2018-03-01T13:09:22.388Z,-2.40
2018-03-01T13:11:56.922Z,-1.70
2018-03-01T13:14:31.787Z,-0.60
2018-03-01T13:17:05.442Z,-0.60
2018-03-01T13:19:39.289Z,-0.40
2018-03-01T13:22:12.964Z,0.00
2018-03-01T13:24:50.065Z,0.30
2018-03-01T13:27:23.824Z,0.30
2018-03-01T13:29:57.526Z,0.70
2018-03-01T13:32:33.224Z,0.80
2018-03-01T13:35:07.777Z,0.80
2018-03-01T13:37:42.117Z,1.40
2018-03-01T13:40:15.873Z,1.40
2018-03-01T13:42:50.348Z,1.50
2018-03-01T13:45:26.029Z,1.70
2018-03-01T13:48:02.687Z,1.60
2018-03-01T13:50:36.372Z,1.60
2018-03-01T13:53:09.993Z,1.80
2018-03-01T13:55:44.518Z,2.00
2018-03-01T13:58:18.893Z,2.80
2018-03-01T14:00:53.427Z,2.50
2018-03-01T14:03:27.599Z,2.40
2018-03-01T14:06:07.967Z,1.90
2018-03-01T14:08:41.622Z,2.70
2018-03-01T14:11:15.431Z,2.50
2018-03-01T14:13:49.812Z,2.50
2018-03-01T14:16:23.429Z,2.50
2018-03-01T14:19:02.860Z,2.10
2018-03-01T14:21:52.332Z,2.20
2018-03-01T14:24:26.466Z,2.10
2018-03-01T14:27:05.270Z,2.00
2018-03-01T14:29:39.514Z,2.30
2018-03-01T14:32:13.218Z,2.20
2018-03-01T14:34:47.954Z,1.80
2018-03-01T14:37:21.704Z,2.10
2018-03-01T14:39:55.477Z,2.60
2018-03-01T14:42:29.164Z,2.90
2018-03-01T14:45:03.876Z,3.00
2018-03-01T14:47:38.523Z,3.10
2018-03-01T14:50:12.331Z,2.70
2018-03-01T14:52:45.984Z,2.40
2018-03-01T14:55:21.433Z,2.90
2018-03-01T14:57:55.230Z,3.40
2018-03-01T15:00:29.719Z,3.80
2018-03-01T15:03:07.837Z,3.60
2018-03-01T15:05:46.079Z,3.50
2018-03-01T15:08:20.473Z,3.10
2018-03-01T15:10:54.143Z,2.40
2018-03-01T15:13:30.819Z,1.40
2018-03-01T15:16:05.266Z,0.70
2018-03-01T15:18:42.743Z,1.10
2018-03-01T15:21:17.084Z,2.40
2018-03-01T15:23:50.809Z,3.00
2018-03-01T15:26:26.798Z,2.10
2018-03-01T15:29:01.266Z,2.30
2018-03-01T15:31:38.868Z,2.80
2018-03-01T15:34:13.666Z,3.00
2018-03-01T15:36:48.799Z,2.80
2018-03-01T15:39:23.265Z,2.60
2018-03-01T15:41:57.051Z,2.00
2018-03-01T15:44:30.904Z,2.10
2018-03-01T15:47:10.711Z,2.30
2018-03-01T15:49:45.860Z,2.50
2018-03-01T15:52:21.447Z,2.10
2018-03-01T15:54:56.161Z,2.30
2018-03-01T15:57:30.523Z,2.80
2018-03-01T16:00:04.249Z,2.80
2018-03-01T16:02:38.255Z,2.20
2018-03-01T16:05:12.025Z,1.60
2018-03-01T16:07:45.804Z,1.40
2018-03-01T16:10:19.490Z,0.90
2018-03-01T16:12:53.121Z,-0.10
2018-03-01T16:15:26.893Z,-1.60
2018-03-01T16:18:00.642Z,-2.50
2018-03-01T16:20:34.406Z,-3.10
2018-03-01T16:23:15.457Z,-3.30
2018-03-01T16:25:49.271Z,-3.60
2018-03-01T16:28:23.031Z,-3.80
2018-03-01T16:30:58.162Z,-3.90
2018-03-01T16:33:32.288Z,-3.90
2018-03-01T16:36:06.084Z,-4.10
2018-03-01T16:38:40.460Z,-4.20
2018-03-01T16:41:14.958Z,-4.30
2018-03-01T16:43:48.735Z,-4.40
2018-03-01T16:46:22.570Z,-4.50
2018-03-01T16:48:57.433Z,-4.60
2018-03-01T16:51:31.139Z,-4.70
2018-03-01T16:54:05.105Z,-4.80
2018-03-01T16:56:39.416Z,-4.80
2018-03-01T16:59:13.327Z,-4.80
2018-03-01T17:01:47.777Z,-5.10
2018-03-01T17:04:22.338Z,-5.10
2018-03-01T17:06:56.974Z,-5.20
2018-03-01T17:09:30.772Z,-5.20
2018-03-01T17:12:04.495Z,-5.20
2018-03-01T17:14:40.416Z,-5.30
2018-03-01T17:17:14.425Z,-5.30
2018-03-01T17:19:49.043Z,-5.30
2018-03-01T17:22:22.883Z,-5.40
2018-03-01T17:24:56.466Z,-5.40
2018-03-01T17:27:30.129Z,-5.40
2018-03-01T17:30:03.810Z,-5.50
2018-03-01T17:32:37.501Z,-5.50
2018-03-01T17:35:11.158Z,-5.50
2018-03-01T17:37:44.895Z,-5.60
2018-03-01T17:40:18.615Z,-5.60
2018-03-01T17:42:52.605Z,-5.70
2018-03-01T17:45:28.041Z,-5.70
2018-03-01T17:48:03.562Z,-5.70
2018-03-01T17:50:37.366Z,-5.70
2018-03-01T17:53:11.088Z,-5.70
2018-03-01T17:55:45.155Z,-5.80
2018-03-01T17:58:20.354Z,-5.80
2018-03-01T18:00:54.959Z,-5.80
2018-03-01T18:03:28.608Z,-5.80
2018-03-01T18:06:02.301Z,-5.80
2018-03-01T18:08:36.077Z,-5.80
2018-03-01T18:11:10.646Z,-5.80
2018-03-01T18:13:44.250Z,-5.80
2018-03-01T18:16:18.633Z,-5.90
2018-03-01T18:18:52.444Z,-5.90
2018-03-01T18:21:27.228Z,-5.90
2018-03-01T18:24:00.972Z,-5.90
2018-03-01T18:26:35.012Z,-5.90
2018-03-01T18:29:11.864Z,-6.00
2018-03-01T18:31:46.647Z,-6.00
2018-03-01T18:34:21.185Z,-6.00
2018-03-01T18:36:55.662Z,-6.00
2018-03-01T18:39:29.487Z,-6.00
2018-03-01T18:42:03.226Z,-6.10
2018-03-01T18:44:37.545Z,-6.10
2018-03-01T18:47:13.837Z,-6.10
2018-03-01T18:49:47.764Z,-6.10
2018-03-01T18:52:22.087Z,-6.10
2018-03-01T18:54:55.888Z,-6.20
2018-03-01T18:57:29.578Z,-6.20
2018-03-01T19:00:03.776Z,-6.20
2018-03-01T19:02:37.482Z,-6.20
2018-03-01T19:05:12.148Z,-6.20
2018-03-01T19:07:45.745Z,-6.20
2018-03-01T19:10:19.320Z,-6.20
2018-03-01T19:12:53.076Z,-6.30
2018-03-01T19:15:26.786Z,-6.20
2018-03-01T19:18:00.528Z,-6.30
2018-03-01T19:20:34.844Z,-6.30
2018-03-01T19:23:08.696Z,-6.30
2018-03-01T19:25:42.405Z,-6.30
2018-03-01T19:28:16.232Z,-6.30
2018-03-01T19:30:50.750Z,-6.40
2018-03-01T19:33:25.168Z,-6.40
2018-03-01T19:35:58.740Z,-6.40
2018-03-01T19:38:32.343Z,-6.50
2018-03-01T19:41:06.861Z,-6.40
2018-03-01T19:43:40.573Z,-6.40
2018-03-01T19:46:14.341Z,-6.40
2018-03-01T19:48:48.168Z,-6.40
2018-03-01T19:51:21.874Z,-6.40
2018-03-01T19:53:55.666Z,-6.40
2018-03-01T19:56:30.186Z,-6.50
2018-03-01T19:59:04.779Z,-6.50
2018-03-01T20:01:38.320Z,-6.50
2018-03-01T20:04:12.689Z,-6.50
2018-03-01T20:06:47.258Z,-6.50
2018-03-01T20:09:21.979Z,-6.50
2018-03-01T20:11:55.697Z,-6.50
2018-03-01T20:14:29.441Z,-6.50
2018-03-01T20:17:03.196Z,-6.50
2018-03-01T20:19:38.594Z,-6.40
2018-03-01T20:22:12.357Z,-6.40
2018-03-01T20:24:46.025Z,-6.40
2018-03-01T20:27:20.336Z,-6.50
2018-03-01T20:29:54.706Z,-6.50
2018-03-01T20:32:28.498Z,-6.50
2018-03-01T20:35:06.386Z,-6.40
2018-03-01T20:37:41.020Z,-6.40
2018-03-01T20:40:14.604Z,-6.50
2018-03-01T20:42:48.277Z,-6.60
2018-03-01T20:45:21.974Z,-6.60
2018-03-01T20:47:55.760Z,-6.60
2018-03-01T20:50:29.463Z,-6.60
2018-03-01T20:53:04.054Z,-6.60
2018-03-01T20:55:38.014Z,-6.70
2018-03-01T20:58:11.814Z,-6.70
2018-03-01T21:00:45.467Z,-6.70
2018-03-01T21:03:19.253Z,-6.80
2018-03-01T21:05:53.015Z,-6.80
2018-03-01T21:08:26.751Z,-6.80
2018-03-01T21:11:01.307Z,-6.90
2018-03-01T21:13:34.947Z,-6.90
2018-03-01T21:16:08.577Z,-6.90
2018-03-01T21:18:42.292Z,-6.90
2018-03-01T21:21:15.985Z,-7.00
2018-03-01T21:23:52.008Z,-7.00
2018-03-01T21:26:25.723Z,-7.00
2018-03-01T21:28:59.510Z,-7.10
2018-03-01T21:31:33.200Z,-7.10
2018-03-01T21:34:06.893Z,-7.00
2018-03-01T21:36:40.501Z,-7.10
2018-03-01T21:39:14.237Z,-7.10
2018-03-01T21:41:47.937Z,-7.10
2018-03-01T21:44:21.781Z,-7.10
2018-03-01T21:47:06.313Z,-7.20
2018-03-01T21:49:40.669Z,-7.20
2018-03-01T21:52:14.744Z,-7.20
2018-03-01T21:54:48.399Z,-7.20
2018-03-01T21:57:22.100Z,-7.20
2018-03-01T21:59:56.821Z,-7.30
2018-03-01T22:02:31.243Z,-7.30
2018-03-01T22:05:05.326Z,-7.30
2018-03-01T22:07:39.685Z,-7.30
2018-03-01T22:10:13.705Z,-7.40
2018-03-01T22:12:47.469Z,-7.40
2018-03-01T22:15:21.145Z,-7.40
2018-03-01T22:17:54.904Z,-7.50
2018-03-01T22:20:28.621Z,-7.50
2018-03-01T22:23:03.158Z,-7.50
2018-03-01T22:25:37.673Z,-7.50
2018-03-01T22:28:12.288Z,-7.50
2018-03-01T22:30:46.436Z,-7.60
2018-03-01T22:33:20.399Z,-7.60
2018-03-01T22:35:54.008Z,-7.60
2018-03-01T22:38:28.262Z,-7.60
2018-03-01T22:41:02.121Z,-7.70
2018-03-01T22:43:36.926Z,-7.70
2018-03-01T22:46:10.843Z,-7.60
2018-03-01T22:48:45.780Z,-7.70
2018-03-01T22:51:21.015Z,-7.70
2018-03-01T22:53:56.489Z,-7.80
2018-03-01T22:56:30.283Z,-7.80
2018-03-01T22:59:04.816Z,-7.80
2018-03-01T23:01:40.412Z,-7.80
2018-03-01T23:04:14.898Z,-7.90
2018-03-01T23:06:48.579Z,-7.90
2018-03-01T23:09:23.511Z,-7.90
2018-03-01T23:11:58.037Z,-8.00
2018-03-01T23:14:33.527Z,-8.00
2018-03-01T23:17:08.234Z,-8.10
2018-03-01T23:19:42.013Z,-8.10
2018-03-01T23:22:15.724Z,-8.10
2018-03-01T23:24:50.246Z,-8.10
2018-03-01T23:27:23.841Z,-8.10
2018-03-01T23:29:58.384Z,-8.20
2018-03-01T23:32:32.105Z,-8.20
2018-03-01T23:35:07.100Z,-8.20
2018-03-01T23:37:41.119Z,-8.20
2018-03-01T23:40:14.890Z,-8.20
2018-03-01T23:42:50.204Z,-8.20
2018-03-01T23:45:23.935Z,-8.20
2018-03-01T23:47:59.157Z,-8.20
2018-03-01T23:50:33.179Z,-8.30
2018-03-01T23:53:07.902Z,-8.30
2018-03-01T23:55:41.860Z,-8.30
2018-03-01T23:58:16.443Z,-8.30
